Time;durP1;ratioP1;P1;durP2;ratioP2;P2;SDS_P1;SDS_P2;PMS_P1;PMS_P2;Temp;Humidity;BMP_temperature;BMP_pressure;BME280_temperature;BME280_humidity;BME280_pressure;Samples;Min_cycle;Max_cycle;Signal;HPM_P1;HPM_P2
2023/01/20 00:00:00;;;;;;;5.32;3.58;;;-1.30;99.90;;;;;;5009259;28;20226;-70
2023/01/20 00:02:27;;;;;;;5.63;4.05;;;-1.40;99.90;;;;;;5009642;28;20198;-70
2023/01/20 00:04:53;;;;;;;5.32;3.70;;;-1.30;99.90;;;;;;5009267;28;21069;-70
2023/01/20 00:07:21;;;;;;;5.72;3.63;;;-1.30;99.90;;;;;;5010259;28;20678;-69
2023/01/20 00:09:48;;;;;;;8.10;4.22;;;-1.30;99.90;;;;;;5009292;28;20202;-69
2023/01/20 00:12:15;;;;;;;7.90;4.47;;;-1.30;99.90;;;;;;5009801;28;20253;-69
2023/01/20 00:14:42;;;;;;;8.10;4.40;;;-1.30;99.90;;;;;;5010219;28;20619;-70
2023/01/20 00:17:08;;;;;;;5.97;4.47;;;-1.20;99.90;;;;;;5010914;28;20214;-70
2023/01/20 00:19:35;;;;;;;7.32;4.93;;;-1.20;99.90;;;;;;5010057;28;20222;-69
2023/01/20 00:22:02;;;;;;;7.35;4.10;;;-1.20;99.90;;;;;;5010972;28;20209;-69
2023/01/20 00:24:30;;;;;;;5.82;4.25;;;-1.20;99.90;;;;;;5010971;28;20206;-70
2023/01/20 00:26:56;;;;;;;10.40;4.68;;;-1.20;99.90;;;;;;5010780;28;20227;-69
2023/01/20 00:29:23;;;;;;;6.22;4.53;;;-1.20;99.90;;;;;;5010171;28;20209;-69
2023/01/20 00:31:50;;;;;;;6.30;4.20;;;-1.20;99.90;;;;;;5010403;28;20210;-69
2023/01/20 00:34:16;;;;;;;4.50;3.92;;;-1.20;99.90;;;;;;5010524;28;20685;-69
2023/01/20 00:36:43;;;;;;;5.32;4.00;;;-1.20;99.90;;;;;;5010442;28;20249;-69
2023/01/20 00:39:10;;;;;;;4.20;3.80;;;-1.30;99.90;;;;;;5009952;28;20230;-69
2023/01/20 00:41:38;;;;;;;6.50;4.28;;;-1.20;99.90;;;;;;5010631;28;20198;-69
2023/01/20 00:44:04;;;;;;;6.78;5.20;;;-1.30;99.90;;;;;;5010452;28;20720;-69
2023/01/20 00:46:31;;;;;;;5.95;4.15;;;-1.20;99.90;;;;;;5010258;28;20218;-69
2023/01/20 00:48:58;;;;;;;10.15;5.28;;;-1.30;99.90;;;;;;5010016;28;20199;-69
2023/01/20 00:51:24;;;;;;;7.10;4.32;;;-1.30;99.90;;;;;;5010351;28;20206;-69
2023/01/20 00:53:51;;;;;;;5.55;3.53;;;-1.30;99.90;;;;;;5010250;28;20681;-69
2023/01/20 00:56:18;;;;;;;6.15;3.80;;;-1.20;99.90;;;;;;5010082;28;20241;-68
2023/01/20 00:58:46;;;;;;;5.95;4.50;;;-1.20;99.90;;;;;;5009774;28;20222;-69
2023/01/20 01:01:13;;;;;;;4.25;3.85;;;-1.20;99.90;;;;;;5010354;28;20625;-69
2023/01/20 01:03:40;;;;;;;4.43;4.03;;;-1.20;99.90;;;;;;5010028;28;20209;-69
2023/01/20 01:06:08;;;;;;;5.45;3.90;;;-1.20;99.90;;;;;;5010305;28;20728;-69
2023/01/20 01:08:35;;;;;;;4.90;3.72;;;-1.10;99.90;;;;;;5009630;28;20206;-69
2023/01/20 01:11:03;;;;;;;5.25;4.10;;;-1.10;99.90;;;;;;5010165;28;20666;-70
2023/01/20 01:13:30;;;;;;;5.10;4.30;;;-1.10;99.90;;;;;;5011059;28;20209;-68
2023/01/20 01:15:58;;;;;;;5.50;4.28;;;-1.10;99.90;;;;;;5013318;28;20218;-69
2023/01/20 01:18:24;;;;;;;6.10;4.35;;;-1.10;99.90;;;;;;5013188;28;20217;-69
2023/01/20 01:20:51;;;;;;;6.18;4.38;;;-1.20;99.90;;;;;;5013511;28;20206;-68
2023/01/20 01:23:18;;;;;;;5.93;3.70;;;-1.20;99.90;;;;;;5013760;28;20221;-69
2023/01/20 01:25:44;;;;;;;6.90;4.18;;;-1.20;99.90;;;;;;5013365;28;20222;-69
2023/01/20 01:28:11;;;;;;;3.70;3.20;;;-1.20;99.90;;;;;;5013425;28;20203;-69
2023/01/20 01:30:38;;;;;;;7.63;4.30;;;-1.20;99.90;;;;;;5013258;28;20206;-70
2023/01/20 01:33:06;;;;;;;4.28;3.88;;;-1.10;99.90;;;;;;5013193;28;20206;-70
2023/01/20 01:35:33;;;;;;;5.43;3.65;;;-1.20;99.90;;;;;;5013451;28;20229;-70
2023/01/20 01:37:59;;;;;;;6.65;3.75;;;-1.20;99.90;;;;;;5013134;28;20210;-70
2023/01/20 01:40:26;;;;;;;4.53;3.20;;;-1.20;99.90;;;;;;5013067;28;20227;-70
2023/01/20 01:42:53;;;;;;;4.88;4.13;;;-1.20;99.90;;;;;;5012918;28;20582;-69
2023/01/20 01:45:26;;;;;;;5.60;4.28;;;-1.20;99.90;;;;;;5013402;28;20241;-70
2023/01/20 01:47:58;;;;;;;5.95;3.60;;;-1.20;99.90;;;;;;5013125;28;20206;-69
2023/01/20 01:50:31;;;;;;;4.10;3.63;;;-1.20;99.90;;;;;;5012660;28;20195;-70
2023/01/20 01:52:58;;;;;;;5.65;3.60;;;-1.20;99.90;;;;;;5013192;28;20234;-70
2023/01/20 01:55:29;;;;;;;5.70;3.85;;;-1.20;99.90;;;;;;5012938;28;20241;-70
2023/01/20 01:57:58;;;;;;;6.68;4.13;;;-1.20;99.90;;;;;;5013005;28;20210;-70
2023/01/20 02:00:24;;;;;;;4.28;3.10;;;-1.20;99.90;;;;;;5012234;28;20651;-70
2023/01/20 02:02:52;;;;;;;4.75;3.70;;;-1.20;99.90;;;;;;5012756;28;20582;-69
2023/01/20 02:05:19;;;;;;;4.38;3.97;;;-1.20;99.90;;;;;;5013007;28;20230;-69
2023/01/20 02:07:48;;;;;;;4.20;3.42;;;-1.20;99.90;;;;;;5012492;28;20661;-70
2023/01/20 02:10:16;;;;;;;3.22;2.92;;;-1.20;99.90;;;;;;5012229;28;20198;-69
2023/01/20 02:12:46;;;;;;;4.85;3.47;;;-1.20;99.90;;;;;;5012526;28;20203;-69
2023/01/20 02:15:13;;;;;;;5.80;3.90;;;-1.30;99.90;;;;;;5012622;28;20245;-69
2023/01/20 02:17:52;;;;;;;5.45;4.45;;;-1.30;99.90;;;;;;5012489;28;20579;-69
2023/01/20 02:20:46;;;;;;;6.22;4.20;;;-1.30;99.90;;;;;;5012127;28;20226;-70
2023/01/20 02:23:29;;;;;;;5.32;3.70;;;-1.20;99.90;;;;;;5012399;28;20209;-70
2023/01/20 02:26:16;;;;;;;3.97;3.47;;;-1.30;99.90;;;;;;5011472;28;20709;-70
2023/01/20 02:29:05;;;;;;;9.55;3.60;;;-1.20;99.90;;;;;;5011828;28;20213;-69
2023/01/20 02:32:03;;;;;;;3.85;3.45;;;-1.20;99.90;;;;;;5012565;28;20215;-70
2023/01/20 02:34:35;;;;;;;6.20;4.32;;;-1.20;99.90;;;;;;5012618;28;20206;-70
2023/01/20 02:37:10;;;;;;;3.80;3.30;;;-1.20;99.90;;;;;;5012050;28;20234;-70
2023/01/20 02:39:44;;;;;;;6.05;3.83;;;-1.20;99.90;;;;;;5011634;28;20233;-69
2023/01/20 02:42:14;;;;;;;6.70;3.70;;;-1.20;99.90;;;;;;5011865;28;20210;-70
2023/01/20 02:44:47;;;;;;;5.15;3.85;;;-1.20;99.90;;;;;;5011958;28;20407;-70
2023/01/20 02:47:21;;;;;;;7.40;4.15;;;-1.20;99.90;;;;;;5012139;28;20202;-69
2023/01/20 02:49:54;;;;;;;6.63;5.15;;;-1.20;99.90;;;;;;5011550;28;20201;-69
2023/01/20 02:52:25;;;;;;;6.93;4.20;;;-1.20;99.90;;;;;;5012214;28;20206;-69
2023/01/20 02:54:54;;;;;;;4.22;3.83;;;-1.20;99.90;;;;;;5011652;28;20225;-69
2023/01/20 02:57:28;;;;;;;5.60;4.20;;;-1.20;99.90;;;;;;5012043;28;20211;-69
2023/01/20 03:00:00;;;;;;;6.68;4.03;;;-1.20;99.90;;;;;;5011072;28;20296;-69
2023/01/20 03:02:30;;;;;;;4.13;3.58;;;-1.20;99.90;;;;;;5011897;28;20207;-69
2023/01/20 03:05:01;;;;;;;5.15;4.65;;;-1.10;99.90;;;;;;5011201;28;20202;-69
2023/01/20 03:07:31;;;;;;;6.10;4.43;;;-1.10;99.90;;;;;;5011894;28;20567;-69
2023/01/20 03:10:01;;;;;;;5.07;4.05;;;-1.10;99.90;;;;;;5011012;28;20209;-69
2023/01/20 03:12:31;;;;;;;4.82;4.32;;;-1.00;99.90;;;;;;5011576;28;20209;-69
2023/01/20 03:14:58;;;;;;;7.63;4.22;;;-1.00;99.90;;;;;;5011714;28;20250;-69
2023/01/20 03:17:24;;;;;;;9.38;4.78;;;-1.00;99.90;;;;;;5011435;28;20224;-70
2023/01/20 03:19:53;;;;;;;5.00;4.18;;;-1.00;99.90;;;;;;5010681;28;20234;-70
2023/01/20 03:22:19;;;;;;;5.22;4.15;;;-1.00;99.90;;;;;;5011186;28;20202;-70
2023/01/20 03:24:48;;;;;;;4.57;3.55;;;-1.00;99.90;;;;;;5011360;28;20614;-69
2023/01/20 03:27:15;;;;;;;5.18;3.80;;;-0.90;99.90;;;;;;5011164;28;20207;-70
2023/01/20 03:29:41;;;;;;;4.28;3.65;;;-1.00;99.90;;;;;;5010592;28;20590;-70
2023/01/20 03:32:10;;;;;;;6.20;4.72;;;-1.00;99.90;;;;;;5011311;28;20203;-69
2023/01/20 03:34:39;;;;;;;4.88;3.95;;;-1.00;99.90;;;;;;5011025;28;20227;-70
2023/01/20 03:37:08;;;;;;;7.55;5.35;;;-1.00;99.90;;;;;;5011147;28;20226;-69
2023/01/20 03:39:38;;;;;;;4.35;3.95;;;-1.00;99.90;;;;;;5010288;28;20218;-70
2023/01/20 03:42:08;;;;;;;4.18;3.50;;;-1.00;99.90;;;;;;5010965;28;20203;-70
2023/01/20 03:44:50;;;;;;;5.47;3.95;;;-1.00;99.90;;;;;;5011219;28;20206;-70
2023/01/20 03:47:24;;;;;;;7.68;4.28;;;-1.00;99.90;;;;;;5011181;28;20205;-70
2023/01/20 03:49:59;;;;;;;4.90;4.40;;;-1.00;99.90;;;;;;5010453;28;20245;-69
2023/01/20 03:52:33;;;;;;;4.70;4.13;;;-0.90;99.90;;;;;;5010888;28;20577;-70
2023/01/20 03:55:04;;;;;;;5.95;4.75;;;-0.90;99.90;;;;;;5010886;28;20594;-69
2023/01/20 03:57:36;;;;;;;5.07;4.10;;;-0.90;99.90;;;;;;5010760;28;20202;-70
2023/01/20 04:00:07;;;;;;;7.35;5.20;;;-0.80;99.90;;;;;;5010408;28;20255;-70
2023/01/20 04:02:34;;;;;;;6.68;5.07;;;-0.80;99.90;;;;;;5010625;28;20202;-70
2023/01/20 04:05:02;;;;;;;7.70;4.95;;;-0.70;99.90;;;;;;5010937;28;20206;-69
2023/01/20 04:07:32;;;;;;;5.95;4.32;;;-0.70;99.90;;;;;;5010946;28;20970;-70
2023/01/20 04:10:04;;;;;;;6.55;5.35;;;-0.70;99.90;;;;;;5010120;28;20206;-70
2023/01/20 04:12:31;;;;;;;7.18;4.60;;;-0.70;99.90;;;;;;5010761;28;20575;-69
2023/01/20 04:14:58;;;;;;;4.93;4.43;;;-0.60;99.90;;;;;;5010494;28;20210;-70
2023/01/20 04:17:27;;;;;;;7.18;4.45;;;-0.60;99.90;;;;;;5010845;28;20217;-70
2023/01/20 04:19:54;;;;;;;6.75;4.75;;;-0.70;99.90;;;;;;5009825;28;20269;-70
2023/01/20 04:22:27;;;;;;;4.97;4.03;;;-0.70;99.90;;;;;;5010727;28;20209;-70
2023/01/20 04:24:59;;;;;;;4.35;3.95;;;-0.70;99.90;;;;;;5010453;28;20575;-70
2023/01/20 04:27:26;;;;;;;4.80;4.03;;;-0.80;99.90;;;;;;5010635;28;20203;-70
2023/01/20 04:29:53;;;;;;;7.75;4.75;;;-0.70;99.90;;;;;;5009990;28;20665;-69
2023/01/20 04:32:19;;;;;;;7.35;4.38;;;-0.80;99.90;;;;;;5010493;28;20673;-70
2023/01/20 04:34:46;;;;;;;8.70;4.63;;;-0.80;99.90;;;;;;5010820;28;20214;-70
2023/01/20 04:37:13;;;;;;;7.78;5.72;;;-0.80;99.90;;;;;;5019029;28;20195;-70
2023/01/20 04:39:39;;;;;;;6.95;4.90;;;-0.80;99.90;;;;;;5017695;28;20217;-69
2023/01/20 04:42:09;;;;;;;6.72;5.18;;;-0.80;99.90;;;;;;5022734;28;20197;-70
2023/01/20 04:44:36;;;;;;;10.18;4.95;;;-0.80;99.90;;;;;;5017184;28;20201;-69
2023/01/20 04:47:02;;;;;;;6.55;5.05;;;-0.80;99.90;;;;;;5009881;28;20221;-70
2023/01/20 04:49:29;;;;;;;4.65;3.90;;;-0.80;99.90;;;;;;5020355;28;20563;-70
2023/01/20 04:51:56;;;;;;;6.25;5.20;;;-0.80;99.90;;;;;;5022297;28;20205;-70
2023/01/20 04:54:22;;;;;;;5.30;4.05;;;-0.70;99.90;;;;;;5033337;28;20217;-69
2023/01/20 04:56:49;;;;;;;10.65;6.28;;;-0.70;99.90;;;;;;5023290;28;20218;-70
2023/01/20 04:59:17;;;;;;;5.47;4.60;;;-0.70;99.90;;;;;;5022217;28;20199;-70
2023/01/20 05:01:44;;;;;;;8.43;4.45;;;-0.70;99.90;;;;;;5021110;28;20296;-71
2023/01/20 05:04:11;;;;;;;5.00;3.75;;;-0.70;99.90;;;;;;5023130;28;20194;-69
2023/01/20 05:06:41;;;;;;;7.50;4.72;;;-0.70;99.90;;;;;;5016356;28;20225;-69
2023/01/20 05:09:09;;;;;;;7.47;4.10;;;-0.70;99.90;;;;;;5013615;28;20265;-69
2023/01/20 05:11:36;;;;;;;6.03;4.70;;;-0.70;99.90;;;;;;5013748;28;20202;-69
2023/01/20 05:14:03;;;;;;;5.30;4.05;;;-0.80;99.90;;;;;;5013720;28;20576;-70
2023/01/20 05:16:32;;;;;;;4.10;3.50;;;-0.80;99.90;;;;;;5013784;28;20223;-70
2023/01/20 05:19:00;;;;;;;6.50;4.65;;;-0.80;99.90;;;;;;5013239;28;20202;-70
2023/01/20 05:21:27;;;;;;;7.75;3.80;;;-0.80;99.90;;;;;;5013801;28;20225;-70
2023/01/20 05:23:54;;;;;;;4.72;4.30;;;-0.90;99.90;;;;;;5018471;28;20197;-70
2023/01/20 05:26:22;;;;;;;4.43;3.72;;;-0.90;99.90;;;;;;5015669;28;20211;-69
2023/01/20 05:28:48;;;;;;;6.13;4.20;;;-0.90;99.90;;;;;;5017663;28;20236;-70
2023/01/20 05:31:15;;;;;;;6.05;3.50;;;-0.90;99.90;;;;;;5032158;28;20208;-69
2023/01/20 05:33:43;;;;;;;7.40;3.50;;;-0.90;99.90;;;;;;5030975;28;20908;-69
2023/01/20 05:36:11;;;;;;;6.50;4.93;;;-0.90;99.90;;;;;;5031938;28;20221;-69
2023/01/20 05:38:38;;;;;;;5.20;3.35;;;-0.90;99.90;;;;;;5031598;28;20669;-69
2023/01/20 05:41:07;;;;;;;4.53;4.13;;;-0.90;99.90;;;;;;5034074;28;20226;-70
2023/01/20 05:43:34;;;;;;;7.20;4.07;;;-1.00;99.90;;;;;;5031771;28;20201;-69
2023/01/20 05:46:00;;;;;;;6.07;3.95;;;-1.00;99.90;;;;;;5033082;28;20224;-69
2023/01/20 05:48:28;;;;;;;4.45;4.03;;;-1.00;99.90;;;;;;5032562;28;20636;-69
2023/01/20 05:50:56;;;;;;;5.20;3.92;;;-1.00;99.90;;;;;;5032897;28;20232;-69
2023/01/20 05:53:23;;;;;;;10.50;4.00;;;-1.00;99.90;;;;;;5032965;28;20201;-69
2023/01/20 05:55:49;;;;;;;6.18;4.63;;;-1.00;99.90;;;;;;5032673;28;20241;-69
2023/01/20 05:58:16;;;;;;;4.20;3.72;;;-1.00;99.90;;;;;;5032788;28;20284;-70
2023/01/20 06:00:43;;;;;;;6.97;4.82;;;-1.00;99.90;;;;;;5031160;28;20700;-70
2023/01/20 06:03:09;;;;;;;6.00;4.15;;;-1.00;99.90;;;;;;5032858;28;20209;-70
2023/01/20 06:05:36;;;;;;;5.40;3.47;;;-1.00;99.90;;;;;;5032469;28;20225;-70
2023/01/20 06:08:05;;;;;;;6.57;4.30;;;-1.00;99.90;;;;;;5032728;28;20209;-69
2023/01/20 06:10:31;;;;;;;4.43;4.00;;;-1.00;99.90;;;;;;5032276;28;20228;-70
2023/01/20 06:12:58;;;;;;;4.25;3.42;;;-1.00;99.90;;;;;;5032316;28;20564;-69
2023/01/20 06:15:25;;;;;;;6.85;4.03;;;-1.00;99.90;;;;;;5032626;28;20229;-69
2023/01/20 06:17:54;;;;;;;8.77;3.60;;;-0.90;99.90;;;;;;5031996;28;20212;-69
2023/01/20 06:20:21;;;;;;;7.13;6.43;;;-1.00;99.90;;;;;;5031913;28;20225;-70
2023/01/20 06:22:48;;;;;;;5.13;3.67;;;-1.00;99.90;;;;;;5032296;28;20616;-69
2023/01/20 06:25:16;;;;;;;5.07;3.60;;;-1.00;99.90;;;;;;5032221;28;20243;-70
2023/01/20 06:27:43;;;;;;;4.82;3.67;;;-1.00;99.90;;;;;;5032403;28;20206;-69
2023/01/20 06:30:11;;;;;;;5.35;4.07;;;-1.00;99.90;;;;;;5031563;28;20197;-70
2023/01/20 06:32:37;;;;;;;4.22;3.67;;;-1.00;99.90;;;;;;5032084;28;20558;-69
2023/01/20 06:35:05;;;;;;;4.43;4.03;;;-1.00;99.90;;;;;;5031894;28;20319;-69
2023/01/20 06:37:31;;;;;;;6.50;3.88;;;-1.10;99.90;;;;;;5032093;28;20682;-69
2023/01/20 06:39:58;;;;;;;5.07;4.38;;;-1.10;99.90;;;;;;5031458;28;20559;-69
2023/01/20 06:42:26;;;;;;;4.97;3.47;;;-1.20;99.90;;;;;;5031802;28;20225;-69
2023/01/20 06:44:53;;;;;;;3.97;3.65;;;-1.20;99.90;;;;;;5031610;28;20202;-69
2023/01/20 06:47:19;;;;;;;5.75;3.90;;;-1.20;99.90;;;;;;5031735;28;20210;-69
2023/01/20 06:49:46;;;;;;;6.53;4.03;;;-1.20;99.90;;;;;;5031327;28;20688;-69
2023/01/20 06:52:12;;;;;;;7.72;5.93;;;-1.20;99.90;;;;;;5031652;28;20233;-69
2023/01/20 06:54:39;;;;;;;8.15;5.20;;;-1.30;99.90;;;;;;5031680;28;20218;-69
2023/01/20 06:57:06;;;;;;;6.85;4.55;;;-1.40;99.90;;;;;;5031841;28;20232;-69
2023/01/20 06:59:34;;;;;;;8.73;4.43;;;-1.40;99.90;;;;;;5031156;28;20204;-69
2023/01/20 07:02:00;;;;;;;5.80;4.70;;;-1.50;99.90;;;;;;5031479;28;20229;-69
2023/01/20 07:04:27;;;;;;;5.90;4.82;;;-1.50;99.90;;;;;;5031570;28;20204;-69
2023/01/20 07:06:54;;;;;;;4.45;4.05;;;-1.50;99.90;;;;;;5031008;28;20230;-69
2023/01/20 07:09:21;;;;;;;5.75;3.70;;;-1.50;99.90;;;;;;5030948;28;20213;-70
2023/01/20 07:11:47;;;;;;;5.78;3.63;;;-1.60;99.90;;;;;;5030919;28;20205;-69
2023/01/20 07:14:14;;;;;;;4.45;3.33;;;-1.60;99.90;;;;;;5031651;28;20322;-70
2023/01/20 07:16:42;;;;;;;3.25;2.95;;;-1.60;99.90;;;;;;5031129;28;20269;-69
2023/01/20 07:19:09;;;;;;;5.75;3.75;;;-1.70;99.90;;;;;;5030904;28;20208;-68
2023/01/20 07:21:36;;;;;;;4.28;3.40;;;-1.70;99.90;;;;;;5031376;28;20221;-70
2023/01/20 07:24:03;;;;;;;5.15;3.35;;;-1.70;99.90;;;;;;5031490;28;20205;-70
2023/01/20 07:26:30;;;;;;;5.68;3.65;;;-1.70;99.90;;;;;;5031136;28;20229;-69
2023/01/20 07:28:58;;;;;;;4.80;4.40;;;-1.60;99.90;;;;;;5030552;28;20205;-70
2023/01/20 07:31:26;;;;;;;6.38;3.92;;;-1.60;99.90;;;;;;5031239;28;20228;-70
2023/01/20 07:33:56;;;;;;;7.05;4.25;;;-1.60;99.90;;;;;;5030605;28;20591;-70
2023/01/20 07:36:22;;;;;;;7.80;4.25;;;-1.60;99.90;;;;;;5030689;28;20311;-69
2023/01/20 07:38:50;;;;;;;5.00;3.40;;;-1.50;99.90;;;;;;5030216;28;20208;-71
2023/01/20 07:41:18;;;;;;;5.70;4.32;;;-1.50;99.90;;;;;;5030900;28;20221;-70
2023/01/20 07:43:45;;;;;;;4.28;2.83;;;-1.50;99.90;;;;;;5030549;28;20681;-70
2023/01/20 07:46:13;;;;;;;6.47;3.67;;;-1.50;99.90;;;;;;5030840;28;20232;-70
2023/01/20 07:48:40;;;;;;;9.30;3.83;;;-1.50;99.90;;;;;;5030204;28;20202;-70
2023/01/20 07:51:10;;;;;;;7.03;4.32;;;-1.50;99.90;;;;;;5030643;28;20630;-70
2023/01/20 07:53:39;;;;;;;6.30;4.53;;;-1.40;99.90;;;;;;5030816;28;20578;-70
2023/01/20 07:56:07;;;;;;;7.50;4.72;;;-1.30;99.90;;;;;;5030399;28;20233;-70
2023/01/20 07:58:34;;;;;;;6.18;3.63;;;-1.20;99.90;;;;;;5030138;28;20689;-69
2023/01/20 08:01:07;;;;;;;4.53;4.13;;;-1.10;99.90;;;;;;5030549;28;20229;-70
2023/01/20 08:03:34;;;;;;;5.38;4.10;;;-1.00;99.90;;;;;;5030566;28;20669;-70
2023/01/20 08:06:02;;;;;;;4.18;3.65;;;-0.90;99.90;;;;;;5030469;28;20591;-70
2023/01/20 08:08:30;;;;;;;8.68;5.60;;;-0.90;99.90;;;;;;5030230;28;20198;-70
2023/01/20 08:10:57;;;;;;;4.95;3.90;;;-0.80;99.90;;;;;;5030490;28;20776;-71
2023/01/20 08:13:24;;;;;;;6.85;4.10;;;-0.70;99.90;;;;;;5030533;28;20209;-70
2023/01/20 08:15:51;;;;;;;5.90;4.35;;;-0.70;99.90;;;;;;5030265;28;20815;-71
2023/01/20 08:18:17;;;;;;;3.97;3.65;;;-0.70;99.90;;;;;;5030231;28;20209;-70
2023/01/20 08:20:44;;;;;;;7.50;4.00;;;-0.70;99.90;;;;;;5030141;28;20222;-71
2023/01/20 08:23:11;;;;;;;4.55;3.47;;;-0.60;99.90;;;;;;5030717;28;20413;-71
2023/01/20 08:25:39;;;;;;;6.90;4.50;;;-0.50;99.90;;;;;;5034468;28;20302;-70
2023/01/20 08:28:06;;;;;;;6.10;4.95;;;-0.50;99.90;;;;;;5034733;28;20209;-71
2023/01/20 08:30:33;;;;;;;5.13;3.90;;;-0.40;99.90;;;;;;5034086;28;20233;-70
2023/01/20 08:33:00;;;;;;;4.63;3.97;;;-0.30;99.90;;;;;;5034248;28;20206;-70
2023/01/20 08:35:26;;;;;;;6.53;4.60;;;-0.30;99.90;;;;;;5034293;28;20232;-70
2023/01/20 08:37:53;;;;;;;6.05;4.30;;;-0.20;99.90;;;;;;5034038;28;20568;-70
2023/01/20 08:40:20;;;;;;;5.47;4.13;;;-0.20;99.90;;;;;;5033714;28;20205;-70
2023/01/20 08:42:48;;;;;;;4.40;4.00;;;-0.10;99.90;;;;;;5033497;28;20213;-70
2023/01/20 08:45:15;;;;;;;9.90;4.13;;;0.00;99.90;;;;;;5034101;28;20317;-70
2023/01/20 08:47:44;;;;;;;5.53;4.20;;;0.10;99.90;;;;;;5033879;28;20197;-71
2023/01/20 08:50:13;;;;;;;6.28;3.60;;;0.20;99.90;;;;;;5033637;28;20206;-69
2023/01/20 08:52:40;;;;;;;4.85;4.15;;;0.20;99.90;;;;;;5033735;28;20198;-70
2023/01/20 08:55:08;;;;;;;5.18;3.72;;;0.20;99.90;;;;;;5033818;28;20237;-70
2023/01/20 08:57:35;;;;;;;4.65;4.22;;;0.30;99.90;;;;;;5033546;28;20700;-70
2023/01/20 09:00:05;;;;;;;7.70;4.80;;;0.40;99.90;;;;;;5033443;28;20212;-70
2023/01/20 09:02:31;;;;;;;6.03;3.70;;;0.40;99.90;;;;;;5033701;28;20264;-70
2023/01/20 09:04:58;;;;;;;4.70;4.20;;;0.40;99.90;;;;;;5033348;28;20209;-70
2023/01/20 09:07:25;;;;;;;4.07;3.17;;;0.40;99.90;;;;;;5033836;28;20198;-70
2023/01/20 09:09:52;;;;;;;5.45;3.88;;;0.50;99.90;;;;;;5032984;28;20324;-70
2023/01/20 09:12:19;;;;;;;3.75;3.30;;;0.60;99.90;;;;;;5033714;28;20201;-70
2023/01/20 09:14:45;;;;;;;8.38;4.45;;;0.80;99.90;;;;;;5033392;28;20202;-70
2023/01/20 09:17:13;;;;;;;6.05;4.15;;;1.00;99.90;;;;;;5033193;28;20199;-70
2023/01/20 09:19:40;;;;;;;8.23;3.30;;;1.20;99.90;;;;;;5028384;28;20197;-70
2023/01/20 09:22:07;;;;;;;4.82;4.20;;;1.40;99.90;;;;;;5032044;28;20221;-71
2023/01/20 09:24:34;;;;;;;7.07;4.60;;;1.50;99.90;;;;;;5033239;28;20245;-70
2023/01/20 09:27:01;;;;;;;4.50;3.65;;;1.80;99.90;;;;;;5032673;28;20830;-70
2023/01/20 09:29:28;;;;;;;6.30;4.20;;;1.90;99.90;;;;;;5032814;28;20256;-70
2023/01/20 09:31:57;;;;;;;5.60;3.92;;;1.90;99.90;;;;;;5033303;28;20568;-70
2023/01/20 09:34:30;;;;;;;6.55;3.85;;;2.10;99.90;;;;;;5032458;28;20226;-70
2023/01/20 09:43:52;;;;;;;5.53;3.97;;;2.30;99.90;;;;;;5032957;28;20222;-70
2023/01/20 09:45:32;;;;;;;5.63;4.05;;;2.70;99.90;;;;;;5032589;28;20620;-70
2023/01/20 09:48:04;;;;;;;4.25;3.58;;;2.80;99.90;;;;;;5032634;28;20216;-70
2023/01/20 09:53:40;;;;;;;5.55;4.03;;;3.00;99.90;;;;;;5032814;28;20209;-69
2023/01/20 09:56:12;;;;;;;6.93;4.03;;;3.00;99.90;;;;;;5032329;28;20739;-69
2023/01/20 09:58:44;;;;;;;4.68;3.78;;;2.80;99.90;;;;;;5031526;28;20205;-69
2023/01/20 10:01:18;;;;;;;4.78;3.40;;;2.60;99.90;;;;;;5032559;28;20617;-69
2023/01/20 10:03:52;;;;;;;5.50;4.30;;;2.50;99.90;;;;;;5031218;28;20212;-69
2023/01/20 10:06:25;;;;;;;4.22;3.20;;;2.40;99.90;;;;;;5032622;28;20308;-70
2023/01/20 10:08:57;;;;;;;6.97;4.28;;;2.30;99.90;;;;;;5031403;28;20206;-70
2023/01/20 10:11:26;;;;;;;4.28;3.60;;;2.10;99.90;;;;;;5032296;28;20209;-69
2023/01/20 10:14:02;;;;;;;17.40;4.55;;;2.10;99.90;;;;;;5032246;28;20206;-70
2023/01/20 10:16:36;;;;;;;6.85;3.75;;;2.20;99.90;;;;;;5031719;28;20227;-70
2023/01/20 10:19:10;;;;;;;5.45;3.78;;;2.30;99.90;;;;;;5031742;28;20205;-70
2023/01/20 10:21:44;;;;;;;3.90;3.50;;;2.40;99.90;;;;;;5031903;28;20221;-70
2023/01/20 10:24:15;;;;;;;4.90;3.78;;;2.60;99.90;;;;;;5032357;28;20672;-69
2023/01/20 10:26:48;;;;;;;3.70;3.40;;;2.70;99.90;;;;;;5031104;28;20229;-69
2023/01/20 10:29:21;;;;;;;4.75;3.63;;;3.00;99.90;;;;;;5031967;28;20205;-69
2023/01/20 10:31:53;;;;;;;4.32;3.80;;;3.50;99.90;;;;;;5031706;28;20693;-70
2023/01/20 10:34:21;;;;;;;3.75;3.13;;;3.70;99.90;;;;;;5032234;28;20198;-70
2023/01/20 10:36:57;;;;;;;7.38;3.60;;;4.00;99.90;;;;;;5028763;28;20231;-69
2023/01/20 10:39:30;;;;;;;6.90;3.55;;;4.40;99.90;;;;;;5031727;28;20212;-70
2023/01/20 10:42:03;;;;;;;4.28;3.78;;;5.50;99.90;;;;;;5032433;28;20232;-70
2023/01/20 10:44:32;;;;;;;4.20;3.80;;;7.70;99.90;;;;;;5032696;28;20208;-70
2023/01/20 10:47:19;;;;;;;7.35;3.28;;;8.90;99.90;;;;;;5030953;28;20588;-70
2023/01/20 10:50:13;;;;;;;4.93;3.63;;;10.30;99.90;;;;;;5031189;28;20197;-69
2023/01/20 10:52:59;;;;;;;4.30;3.63;;;11.50;99.10;;;;;;5028803;28;20194;-70
2023/01/20 10:55:37;;;;;;;6.30;3.63;;;11.00;98.40;;;;;;5031379;28;20240;-70
2023/01/20 10:58:22;;;;;;;4.13;3.22;;;10.90;97.70;;;;;;5031866;28;20208;-70
2023/01/20 11:00:50;;;;;;;4.13;3.70;;;10.40;98.10;;;;;;5031051;28;20208;-69
2023/01/20 11:03:19;;;;;;;5.43;4.00;;;9.80;99.00;;;;;;5031476;28;20232;-69
2023/01/20 11:05:48;;;;;;;5.75;3.67;;;9.80;99.90;;;;;;5031317;28;20236;-69
2023/01/20 11:08:19;;;;;;;10.82;3.97;;;10.80;98.40;;;;;;5031023;28;20759;-70
2023/01/20 11:10:49;;;;;;;4.28;3.53;;;11.80;97.70;;;;;;5031488;28;20672;-69
2023/01/20 11:13:16;;;;;;;4.35;3.20;;;13.70;96.40;;;;;;5030428;28;20657;-70
2023/01/20 11:15:45;;;;;;;4.88;3.80;;;15.50;95.10;;;;;;5030824;28;20221;-69
2023/01/20 11:18:26;;;;;;;4.47;4.07;;;17.70;92.20;;;;;;5029998;28;20213;-69
2023/01/20 11:20:56;;;;;;;4.23;3.83;;;19.90;88.20;;;;;;5030883;28;20842;-70
2023/01/20 11:23:34;;;;;;;7.53;4.13;;;21.30;82.30;;;;;;5030943;28;20487;-70
2023/01/20 11:26:08;;;;;;;5.23;3.40;;;21.50;80.20;;;;;;5030415;28;20487;-70
2023/01/20 11:28:44;;;;;;;3.40;3.10;;;21.80;77.40;;;;;;5030532;28;20559;-69
2023/01/20 11:31:11;;;;;;;3.40;2.73;;;19.50;77.40;;;;;;5031009;28;20811;-69
2023/01/20 11:33:38;;;;;;;3.53;3.20;;;16.90;80.30;;;;;;5023942;28;20468;-68
2023/01/20 11:36:06;;;;;;;3.63;2.77;;;14.70;82.10;;;;;;5008933;28;20481;-69
2023/01/20 11:38:42;;;;;;;3.47;3.00;;;12.80;84.60;;;;;;5011566;28;20456;-69
2023/01/20 11:41:20;;;;;;;4.22;2.95;;;11.90;87.50;;;;;;5030745;28;20665;-70
2023/01/20 11:43:48;;;;;;;3.42;2.55;;;13.00;86.60;;;;;;5030280;28;20659;-69
2023/01/20 11:46:24;;;;;;;4.30;3.00;;;14.50;84.30;;;;;;5030352;28;20240;-70
2023/01/20 11:49:05;;;;;;;2.67;2.47;;;14.30;82.10;;;;;;5029523;28;20456;-70
2023/01/20 11:51:32;;;;;;;3.67;2.90;;;13.40;83.80;;;;;;5030286;28;20209;-69
2023/01/20 11:54:13;;;;;;;2.15;1.95;;;12.70;85.10;;;;;;5030194;28;20664;-70
2023/01/20 11:56:42;;;;;;;3.90;2.80;;;12.20;87.10;;;;;;5029737;28;20225;-69
2023/01/20 11:59:19;;;;;;;2.88;2.67;;;12.50;87.10;;;;;;5029643;28;20669;-70
2023/01/20 12:01:52;;;;;;;2.78;2.53;;;13.20;84.20;;;;;;5029895;28;20209;-70
2023/01/20 12:04:39;;;;;;;3.05;2.15;;;13.20;84.90;;;;;;5030151;28;20579;-70
2023/01/20 12:07:09;;;;;;;2.17;1.98;;;14.40;83.10;;;;;;5030049;28;20248;-70
2023/01/20 12:09:40;;;;;;;5.75;3.25;;;15.20;79.90;;;;;;5029868;28;20248;-70
2023/01/20 12:12:13;;;;;;;3.20;2.43;;;16.10;79.00;;;;;;5029420;28;20201;-70
2023/01/20 12:14:45;;;;;;;2.20;2.00;;;16.00;78.40;;;;;;5029581;28;20464;-69
2023/01/20 12:17:19;;;;;;;2.42;2.22;;;15.30;78.30;;;;;;5030273;28;20471;-69
2023/01/20 12:20:02;;;;;;;3.63;1.90;;;14.90;78.30;;;;;;5029458;28;20643;-69
2023/01/20 12:22:37;;;;;;;2.08;1.60;;;14.30;79.40;;;;;;5030102;28;20586;-69
2023/01/20 12:25:18;;;;;;;2.22;2.00;;;13.20;80.40;;;;;;5030361;28;20205;-69
2023/01/20 12:27:49;;;;;;;2.20;2.00;;;11.90;82.20;;;;;;5029007;28;20212;-69
2023/01/20 12:30:43;;;;;;;1.90;1.38;;;10.60;85.20;;;;;;5029633;28;20224;-69
2023/01/20 12:33:24;;;;;;;3.72;2.05;;;10.10;85.30;;;;;;5029683;28;20201;-69
2023/01/20 12:36:18;;;;;;;1.70;1.60;;;10.10;85.20;;;;;;5029481;28;20226;-68
2023/01/20 12:38:57;;;;;;;2.08;1.88;;;10.30;86.40;;;;;;5027389;28;20256;-69
2023/01/20 12:41:45;;;;;;;2.33;1.90;;;10.20;85.70;;;;;;5010324;28;20202;-69
2023/01/20 12:44:19;;;;;;;2.85;2.33;;;9.30;87.70;;;;;;5010379;28;20203;-69
2023/01/20 12:46:51;;;;;;;3.55;2.10;;;8.60;88.20;;;;;;5009741;28;20229;-70
2023/01/20 12:49:39;;;;;;;3.28;2.35;;;8.70;89.40;;;;;;5010002;28;20642;-69
2023/01/20 12:52:22;;;;;;;2.35;2.15;;;9.10;89.20;;;;;;5004988;28;20198;-70
2023/01/20 12:55:02;;;;;;;2.97;2.15;;;9.30;89.10;;;;;;5011402;28;20206;-70
2023/01/20 12:57:47;;;;;;;2.38;1.90;;;9.00;88.70;;;;;;5010210;28;20689;-69
2023/01/20 13:00:31;;;;;;;2.10;1.90;;;9.30;88.10;;;;;;5008133;28;20553;-70
2023/01/20 13:03:29;;;;;;;3.55;2.10;;;9.40;88.60;;;;;;5010251;28;20663;-69
2023/01/20 13:06:14;;;;;;;2.58;1.70;;;9.60;88.80;;;;;;5010100;28;20718;-69
2023/01/20 13:08:50;;;;;;;2.13;1.60;;;9.70;88.10;;;;;;5009936;28;20205;-69
2023/01/20 13:11:26;;;;;;;3.08;1.90;;;9.40;88.50;;;;;;5013851;28;20236;-69